Terminal Aerodrome Forecast
Issued by NWS Wilmington, OH

Current Version | Previous Version | Graphics & Text | Print | Product List | Glossary On
Versions: 1 2 3 4 5 6 7 8 9 10 11 12 13 14 15 16 17 18 19 20 21 22 23
000
FTUS41 KILN 220500
TAFDAY
TAF
KDAY 220534Z 2206/2306 11006KT P6SM SCT250
      TEMPO 2206/2209 5SM BR
     FM221200 13007KT P6SM SCT015 BKN045
     FM221800 12010KT P6SM SCT040 BKN150
     FM230300 13010KT P6SM VCSH SCT040 BKN060
     FM230500 13010KT 5SM -RA BR SCT008 BKN025=

USA.gov is the U.S. government's official web portal to all federal, state and local government web resources and services.